BIENTÔT MET'MAP
version 2.0 !

Prévue avant fin octobre,
la nouvelle version sera
plus belle, plus complète
et hébergée sur un serveur
3 fois plus puissant...
et toujours gratuite !


Pas compatible ?
Essayez la version Mobile !

SE CONNECTER : | S'inscrire | Disclaimer | Découvrir Orbifly |
Code OACI :

TAF - LIBV Gioia del Colle Bari - 31 May 2020 03:45 UTC - Data Source NOAA   


- Altitude de l'aérodrome : 1187 ft
- Pas de NOTAMs connus.


LIBV - Gioia del Colle Bari

Dernier METAR connu : 2015/08/11 07:55 LIBV 110755Z 15004KT 9999 FEW030 26/20 Q1012 RMK SCT SCT100 VIS MIN 9999 WIND THR32 VRB02KT WIND THR14 17005KT BLU
TAF TAF LIBV
Valide du 31 à 00h jusqu'au 31 à 09h UTC


302300Z 3100/3109 VRB02KT 8000 SCT025 BKN040
BECMG 3100/3102 33007KT
TEMPO 3100/3102 5000 BR SCT010
PROB30
TEMPO 3102/3106 2000 BR BKN010

Source NOAA


MET'MAP, la Météo Aéronautique d'un coup d'oeil ! - Copyright ORBIFLY Décembre 2007

Développement & Programmation : Alexandra Zaïnal
Co-Développement : Marc-Olivier Méhu
Soutien technique & logistique : Manuel Goepfert
Conception & Financement : Baudouin d'Aumeries